Time;durP1;ratioP1;P1;durP2;ratioP2;P2;SDS_P1;SDS_P2;PMS_P1;PMS_P2;Temp;Humidity;BMP_temperature;BMP_pressure;BME280_temperature;BME280_humidity;BME280_pressure;Samples;Min_cycle;Max_cycle;Signal;HPM_P1;HPM_P2
2022/12/15 00:39:58;;;;;;;17.35;9.57;;;-4.10;99.90;;;;;;5013157;28;20413;-80
2022/12/15 00:42:27;;;;;;;18.83;9.98;;;-4.10;99.90;;;;;;5013800;28;20096;-80
2022/12/15 00:44:57;;;;;;;17.60;9.93;;;-4.10;99.90;;;;;;5013295;28;20116;-80
2022/12/15 00:47:24;;;;;;;15.95;9.07;;;-4.10;99.90;;;;;;5013168;28;20133;-80
2022/12/15 01:20:18;;;;;;;17.10;8.65;;;-4.10;99.90;;;;;;4998405;28;20041;-80
2022/12/15 01:22:51;;;;;;;16.27;8.85;;;-4.10;99.90;;;;;;4996450;28;20137;-80
2022/12/15 01:25:19;;;;;;;15.82;8.32;;;-4.10;99.90;;;;;;5013204;28;20490;-79
2022/12/15 01:27:45;;;;;;;16.02;9.20;;;-4.10;99.90;;;;;;4996136;28;20050;-80
2022/12/15 01:30:14;;;;;;;16.60;8.88;;;-4.10;99.90;;;;;;5013032;28;20045;-80
2022/12/15 01:32:40;;;;;;;14.73;8.50;;;-4.10;99.90;;;;;;4995856;28;20057;-80
2022/12/15 01:35:06;;;;;;;16.05;8.73;;;-4.00;99.90;;;;;;5013658;28;20038;-80
2022/12/15 01:37:34;;;;;;;14.73;8.43;;;-4.10;99.90;;;;;;5012891;28;20053;-80
2022/12/15 01:42:44;;;;;;;14.73;8.50;;;-4.00;99.90;;;;;;4995499;28;20069;-80
2022/12/15 01:45:22;;;;;;;15.43;8.65;;;-4.00;99.90;;;;;;4995835;28;20069;-80
2022/12/15 01:47:47;;;;;;;14.00;8.60;;;-4.00;99.90;;;;;;4994683;28;20508;-80
2022/12/15 01:50:13;;;;;;;14.30;8.68;;;-4.00;99.90;;;;;;4995467;28;20037;-80
2022/12/15 01:52:39;;;;;;;12.80;7.57;;;-4.10;99.90;;;;;;4995320;28;20042;-80
2022/12/15 01:55:05;;;;;;;15.90;8.82;;;-4.00;99.90;;;;;;4995677;28;20046;-80
2022/12/15 01:57:34;;;;;;;14.02;8.38;;;-4.10;99.90;;;;;;4995112;28;20052;-80
2022/12/15 02:00:03;;;;;;;14.00;8.07;;;-4.00;99.90;;;;;;5017520;28;20045;-80
2022/12/15 02:02:31;;;;;;;13.60;8.02;;;-4.10;99.90;;;;;;5000913;28;20049;-80
2022/12/15 02:04:58;;;;;;;14.05;8.15;;;-4.00;99.90;;;;;;4994819;28;20041;-80
2022/12/15 02:07:28;;;;;;;14.68;7.95;;;-4.10;99.90;;;;;;5012031;28;20053;-80
2022/12/15 02:09:57;;;;;;;14.10;7.63;;;-4.10;99.90;;;;;;4998244;28;20092;-80
2022/12/15 02:12:47;;;;;;;13.55;8.18;;;-4.10;99.90;;;;;;4997683;28;20050;-80
2022/12/15 02:15:51;;;;;;;15.10;8.35;;;-4.10;99.90;;;;;;4999727;28;20046;-80
2022/12/15 02:18:35;;;;;;;13.68;7.95;;;-4.10;99.90;;;;;;4939967;29;20047;-80
2022/12/15 02:21:16;;;;;;;12.60;7.35;;;-4.10;99.90;;;;;;4956550;28;20083;-79
2022/12/15 02:24:05;;;;;;;14.10;8.05;;;-4.10;99.90;;;;;;4981155;28;20062;-80
2022/12/15 02:27:12;;;;;;;14.52;8.20;;;-4.10;99.90;;;;;;4999290;28;20042;-80
2022/12/15 02:30:12;;;;;;;12.48;7.68;;;-4.10;99.90;;;;;;4984225;28;20050;-79
2022/12/15 02:32:56;;;;;;;15.32;8.20;;;-4.10;99.90;;;;;;5016441;28;20037;-79
2022/12/15 02:35:37;;;;;;;11.55;6.88;;;-4.10;99.90;;;;;;4998286;28;20097;-79
2022/12/15 02:38:02;;;;;;;13.02;7.43;;;-4.20;99.90;;;;;;5016833;28;20078;-79
2022/12/15 02:40:28;;;;;;;12.07;7.40;;;-4.20;99.90;;;;;;5030314;28;20104;-80
2022/12/15 02:42:56;;;;;;;14.10;8.05;;;-4.20;99.90;;;;;;4990246;28;20041;-79
2022/12/15 02:46:00;;;;;;;13.55;7.38;;;-4.20;99.90;;;;;;4999182;28;20045;-80
2022/12/15 02:48:42;;;;;;;13.32;8.07;;;-4.20;99.90;;;;;;4998289;28;20053;-80
2022/12/15 02:51:41;;;;;;;12.82;7.53;;;-4.20;99.90;;;;;;4999450;28;20041;-80
2022/12/15 02:54:37;;;;;;;11.77;7.45;;;-4.20;99.90;;;;;;4999687;28;20104;-80
2022/12/15 02:57:15;;;;;;;12.30;6.80;;;-4.20;99.90;;;;;;4999936;28;20042;-80
2022/12/15 02:59:54;;;;;;;12.63;7.88;;;-4.20;99.90;;;;;;5017131;28;20045;-80
2022/12/15 03:02:23;;;;;;;12.65;7.30;;;-4.20;99.90;;;;;;4997276;28;20096;-80
2022/12/15 03:04:49;;;;;;;13.23;7.35;;;-4.20;99.90;;;;;;4998107;28;20038;-80
2022/12/15 03:07:15;;;;;;;15.63;7.35;;;-4.20;99.90;;;;;;5014448;28;20038;-80
2022/12/15 03:09:41;;;;;;;13.70;7.07;;;-4.20;99.90;;;;;;4999347;28;20104;-80
2022/12/15 03:12:07;;;;;;;13.43;7.05;;;-4.20;99.90;;;;;;4999067;28;20050;-80
2022/12/15 03:14:33;;;;;;;12.73;7.13;;;-4.20;99.90;;;;;;4998605;28;20046;-80
2022/12/15 03:16:58;;;;;;;11.98;7.70;;;-4.20;99.90;;;;;;5016361;28;20111;-80
2022/12/15 03:19:24;;;;;;;12.38;6.78;;;-4.20;99.90;;;;;;5016362;28;20490;-79
2022/12/15 03:21:51;;;;;;;12.70;6.88;;;-4.20;99.90;;;;;;5015805;28;20505;-79
2022/12/15 03:24:17;;;;;;;13.13;7.07;;;-4.20;99.90;;;;;;5015321;28;20050;-80
2022/12/15 03:26:42;;;;;;;12.57;7.22;;;-4.10;99.90;;;;;;5025369;28;20517;-79
2022/12/15 03:29:08;;;;;;;13.82;7.25;;;-4.20;99.90;;;;;;4998156;28;20041;-80
2022/12/15 03:31:34;;;;;;;11.32;7.20;;;-4.20;99.90;;;;;;5015979;28;20517;-80
2022/12/15 03:34:00;;;;;;;12.57;6.93;;;-4.20;99.90;;;;;;4997925;28;20081;-80
2022/12/15 03:36:26;;;;;;;11.18;7.18;;;-4.10;99.90;;;;;;4996838;28;20568;-79
2022/12/15 03:38:52;;;;;;;11.38;7.05;;;-4.20;99.90;;;;;;5015689;28;20053;-80
2022/12/15 03:41:18;;;;;;;13.10;7.30;;;-4.10;99.90;;;;;;5014773;28;20057;-80
2022/12/15 03:43:45;;;;;;;15.10;8.63;;;-4.10;99.90;;;;;;5014224;28;20437;-79
2022/12/15 03:46:11;;;;;;;11.93;6.88;;;-4.10;99.90;;;;;;5015133;28;20045;-80
2022/12/15 03:48:36;;;;;;;12.13;7.05;;;-4.10;99.90;;;;;;5014690;28;20046;-80
2022/12/15 03:51:02;;;;;;;13.40;7.47;;;-4.10;99.90;;;;;;5014651;28;20038;-80
2022/12/15 03:53:28;;;;;;;10.70;6.25;;;-4.10;99.90;;;;;;4997155;28;20065;-79
2022/12/15 03:55:53;;;;;;;16.20;9.20;;;-4.10;99.90;;;;;;5014963;28;20529;-79
2022/12/15 03:58:19;;;;;;;14.82;7.80;;;-4.10;99.90;;;;;;5014330;28;20049;-80
2022/12/15 04:00:45;;;;;;;13.70;7.05;;;-4.10;99.90;;;;;;5014539;28;20042;-79
2022/12/15 04:03:11;;;;;;;16.17;9.80;;;-4.00;99.90;;;;;;4986542;28;20390;-80
2022/12/15 04:05:37;;;;;;;16.85;8.40;;;-4.00;99.90;;;;;;4996833;28;20052;-79
2022/12/15 04:08:03;;;;;;;17.20;8.25;;;-3.90;99.90;;;;;;5015104;28;20120;-80
2022/12/15 04:10:31;;;;;;;15.07;7.57;;;-3.90;99.90;;;;;;5014352;28;20470;-79
2022/12/15 04:13:07;;;;;;;12.85;7.05;;;-3.90;99.90;;;;;;5014978;28;20375;-80
2022/12/15 04:15:33;;;;;;;12.73;7.35;;;-3.90;99.90;;;;;;5014587;28;20498;-80
2022/12/15 04:18:01;;;;;;;9.57;6.15;;;-3.90;99.90;;;;;;5013547;28;20083;-80
2022/12/15 04:20:27;;;;;;;12.60;6.55;;;-3.90;99.90;;;;;;4996994;28;20049;-79
2022/12/15 04:22:53;;;;;;;12.27;6.93;;;-3.90;99.90;;;;;;5015022;28;20098;-79
2022/12/15 05:31:53;;;;;;;20.13;9.38;;;-3.40;99.90;;;;;;4998610;28;20052;-83
2022/12/15 05:34:21;;;;;;;13.52;7.22;;;-3.40;99.90;;;;;;5011497;28;20385;-82
2022/12/15 05:36:48;;;;;;;12.88;6.80;;;-3.40;99.90;;;;;;5010632;28;20046;-83
2022/12/15 05:39:13;;;;;;;12.15;6.05;;;-3.30;99.90;;;;;;4994766;28;20045;-82
2022/12/15 05:41:39;;;;;;;12.68;6.72;;;-3.40;99.90;;;;;;5011518;28;20125;-82
2022/12/15 05:44:05;;;;;;;15.35;8.27;;;-3.30;99.90;;;;;;5011929;28;20096;-82
2022/12/15 05:46:30;;;;;;;15.38;8.20;;;-3.30;99.90;;;;;;5012923;28;20096;-82
2022/12/15 05:48:56;;;;;;;11.07;6.13;;;-3.30;99.90;;;;;;4994733;28;20077;-82
2022/12/15 05:51:22;;;;;;;17.08;7.25;;;-3.30;99.90;;;;;;5012734;28;20093;-82
2022/12/15 05:53:47;;;;;;;14.57;7.65;;;-3.30;99.90;;;;;;4996158;28;20068;-82
2022/12/15 05:56:13;;;;;;;11.55;6.75;;;-3.30;99.90;;;;;;5012298;28;20038;-83
2022/12/15 05:58:40;;;;;;;13.90;8.57;;;-3.30;99.90;;;;;;5013392;28;20045;-82
2022/12/15 06:01:11;;;;;;;12.90;6.95;;;-3.30;99.90;;;;;;5013048;28;20045;-82
2022/12/15 06:03:38;;;;;;;14.10;6.47;;;-3.20;99.90;;;;;;4994670;28;20085;-82
2022/12/15 06:06:04;;;;;;;17.13;8.93;;;-3.30;99.90;;;;;;4995581;28;20498;-82
2022/12/15 06:08:32;;;;;;;11.60;6.47;;;-3.30;99.90;;;;;;5013293;28;20118;-82
2022/12/15 06:10:58;;;;;;;16.90;7.93;;;-3.30;99.90;;;;;;5012743;28;20049;-82
2022/12/15 06:13:25;;;;;;;12.57;6.78;;;-3.30;99.90;;;;;;4995104;28;20401;-82
2022/12/15 06:15:58;;;;;;;12.93;6.65;;;-3.30;99.90;;;;;;5013028;28;20050;-82
2022/12/15 06:18:28;;;;;;;10.52;5.93;;;-3.30;99.90;;;;;;4994075;28;20046;-82
2022/12/15 06:21:02;;;;;;;13.30;7.10;;;-3.30;99.90;;;;;;4995507;28;20487;-82
2022/12/15 06:23:28;;;;;;;19.70;8.70;;;-3.30;99.90;;;;;;4995238;28;20072;-82
2022/12/15 06:25:55;;;;;;;14.90;7.07;;;-3.30;99.90;;;;;;4994753;28;20038;-82
2022/12/15 06:28:23;;;;;;;20.92;9.05;;;-3.30;99.90;;;;;;4995493;28;20053;-82
2022/12/15 06:30:53;;;;;;;23.52;9.10;;;-3.20;99.90;;;;;;5012850;28;20045;-82
2022/12/15 06:33:20;;;;;;;14.68;8.23;;;-3.20;99.90;;;;;;4994606;28;20049;-82
2022/12/15 06:35:46;;;;;;;19.20;9.98;;;-3.20;99.90;;;;;;4995228;28;20180;-82
2022/12/15 06:38:12;;;;;;;17.05;9.50;;;-3.20;99.90;;;;;;5011840;28;20081;-80
2022/12/15 06:40:38;;;;;;;13.80;7.00;;;-3.20;99.90;;;;;;5013962;28;20045;-82
2022/12/15 06:43:05;;;;;;;11.88;6.70;;;-3.10;99.90;;;;;;5012617;28;20129;-81
2022/12/15 06:45:30;;;;;;;12.98;6.30;;;-3.00;99.90;;;;;;5008580;28;20857;-81
2022/12/15 06:47:56;;;;;;;17.73;9.32;;;-3.10;99.90;;;;;;5014869;28;20050;-81
2022/12/15 06:50:22;;;;;;;16.05;8.65;;;-3.10;99.90;;;;;;5015894;28;20584;-81
2022/12/15 06:52:53;;;;;;;12.65;7.20;;;-3.00;99.90;;;;;;5014644;28;20119;-81
2022/12/15 06:55:19;;;;;;;16.50;8.25;;;-3.00;99.90;;;;;;4978843;28;20061;-81
2022/12/15 06:57:48;;;;;;;18.10;8.10;;;-2.90;99.90;;;;;;5000455;28;20533;-81
2022/12/15 07:00:14;;;;;;;16.48;8.40;;;-2.90;99.90;;;;;;5015228;28;20045;-80
2022/12/15 07:02:41;;;;;;;20.38;8.77;;;-2.90;99.90;;;;;;5016161;28;20049;-80
2022/12/15 07:05:08;;;;;;;17.10;7.43;;;-2.80;99.90;;;;;;5031788;28;20477;-81
2022/12/15 07:07:34;;;;;;;10.05;6.18;;;-2.70;99.90;;;;;;5033767;28;20120;-81
2022/12/15 07:09:59;;;;;;;14.27;6.68;;;-2.70;99.90;;;;;;5016973;28;20073;-82
2022/12/15 07:12:25;;;;;;;14.88;7.03;;;-2.70;99.90;;;;;;5013948;28;20045;-80
2022/12/15 07:14:50;;;;;;;15.07;7.60;;;-2.60;99.90;;;;;;5014601;28;20374;-80
2022/12/15 07:17:16;;;;;;;16.48;8.05;;;-2.60;99.90;;;;;;5014372;28;20529;-81
2022/12/15 07:19:42;;;;;;;18.00;8.45;;;-2.60;99.90;;;;;;5015496;28;20046;-82
2022/12/15 07:22:07;;;;;;;13.23;7.40;;;-2.60;99.90;;;;;;4997203;28;20046;-81
2022/12/15 07:24:33;;;;;;;16.23;7.50;;;-2.50;99.90;;;;;;5015770;28;20042;-81
2022/12/15 07:26:58;;;;;;;17.50;7.57;;;-2.50;99.90;;;;;;4998164;28;20037;-81
2022/12/15 07:29:24;;;;;;;18.48;7.90;;;-2.50;99.90;;;;;;4997531;28;20049;-81
2022/12/15 07:31:49;;;;;;;18.38;7.82;;;-2.40;99.90;;;;;;5015441;28;20045;-81
2022/12/15 07:34:15;;;;;;;11.10;6.05;;;-2.40;99.90;;;;;;4997521;28;20123;-82
2022/12/15 07:36:40;;;;;;;17.90;7.85;;;-2.40;99.90;;;;;;4997654;28;20074;-82
2022/12/15 07:39:06;;;;;;;14.02;8.00;;;-2.40;99.90;;;;;;5015660;28;20450;-82
2022/12/15 07:41:32;;;;;;;15.65;8.18;;;-2.40;99.90;;;;;;4997580;28;20049;-82
2022/12/15 07:43:58;;;;;;;14.60;7.60;;;-2.40;99.90;;;;;;4997751;28;20073;-83
2022/12/15 07:46:25;;;;;;;14.50;7.55;;;-2.30;99.90;;;;;;4998491;28;20038;-83
2022/12/15 07:48:52;;;;;;;15.50;6.88;;;-2.30;99.90;;;;;;5014684;28;20147;-83
2022/12/15 07:51:19;;;;;;;14.40;7.00;;;-2.30;99.90;;;;;;5015209;28;20046;-82
2022/12/15 07:53:45;;;;;;;14.55;7.43;;;-2.40;99.90;;;;;;4999216;28;20112;-83
2022/12/15 07:56:11;;;;;;;11.57;6.22;;;-2.40;99.90;;;;;;4999587;28;20050;-82
2022/12/15 07:58:37;;;;;;;13.35;6.75;;;-2.30;99.90;;;;;;4998528;28;20057;-83
2022/12/15 08:01:05;;;;;;;14.75;7.45;;;-2.30;99.90;;;;;;5015668;28;20408;-82
2022/12/15 08:03:31;;;;;;;17.83;8.98;;;-2.30;99.90;;;;;;4997828;28;20810;-82
2022/12/15 08:05:57;;;;;;;13.38;6.85;;;-2.30;99.90;;;;;;5015266;28;20057;-82
2022/12/15 08:08:22;;;;;;;11.35;6.45;;;-2.30;99.90;;;;;;4998860;28;20104;-82
2022/12/15 08:10:48;;;;;;;18.50;8.98;;;-2.30;99.90;;;;;;5015263;28;20073;-83
2022/12/15 08:13:14;;;;;;;16.23;7.50;;;-2.30;99.90;;;;;;4998375;28;20042;-83
2022/12/15 08:15:40;;;;;;;17.20;8.50;;;-2.30;99.90;;;;;;4998388;28;20048;-82
2022/12/15 08:18:07;;;;;;;16.30;6.57;;;-2.30;99.90;;;;;;5017724;28;20176;-83
2022/12/15 08:20:34;;;;;;;15.30;7.70;;;-2.30;99.90;;;;;;5034687;28;20049;-82
2022/12/15 08:23:00;;;;;;;15.40;8.18;;;-2.30;99.90;;;;;;5028480;28;20121;-83
2022/12/15 08:25:29;;;;;;;14.70;7.22;;;-2.30;99.90;;;;;;4997051;28;20442;-83
2022/12/15 08:27:55;;;;;;;13.65;7.38;;;-2.20;99.90;;;;;;5015693;28;20095;-83
2022/12/15 08:30:21;;;;;;;15.23;6.80;;;-2.20;99.90;;;;;;4996738;28;20050;-83
2022/12/15 08:32:47;;;;;;;10.38;6.13;;;-2.20;99.90;;;;;;4996257;28;20049;-83
2022/12/15 08:35:13;;;;;;;14.10;7.70;;;-2.20;99.90;;;;;;4996862;28;20053;-83
2022/12/15 08:37:39;;;;;;;15.15;7.30;;;-2.20;99.90;;;;;;4996890;28;20053;-83
2022/12/15 08:40:05;;;;;;;13.77;7.35;;;-2.20;99.90;;;;;;4992767;28;20054;-83
2022/12/15 08:42:37;;;;;;;13.63;7.22;;;-2.20;99.90;;;;;;4992703;28;20053;-83
2022/12/15 08:45:03;;;;;;;20.13;9.27;;;-2.20;99.90;;;;;;4992919;28;20052;-83
2022/12/15 08:47:30;;;;;;;17.42;8.15;;;-2.10;99.90;;;;;;4994540;28;20498;-82
2022/12/15 08:49:55;;;;;;;19.17;9.68;;;-2.10;99.90;;;;;;4994914;28;20039;-82
2022/12/15 08:52:21;;;;;;;12.85;7.13;;;-2.10;99.90;;;;;;4992372;28;20096;-83
2022/12/15 08:54:48;;;;;;;18.88;9.25;;;-2.10;99.90;;;;;;4993883;28;20453;-83
2022/12/15 08:57:13;;;;;;;12.20;7.55;;;-2.10;99.90;;;;;;4992983;28;20049;-84
2022/12/15 08:59:39;;;;;;;22.30;9.07;;;-2.10;99.90;;;;;;4993493;28;20402;-83
2022/12/15 09:02:04;;;;;;;17.27;8.82;;;-2.10;99.90;;;;;;4993214;28;20042;-83
2022/12/15 09:04:30;;;;;;;17.70;8.00;;;-2.10;99.90;;;;;;4992782;28;20133;-83
2022/12/15 09:06:56;;;;;;;19.75;9.80;;;-2.00;99.90;;;;;;4993499;28;20448;-83
2022/12/15 09:09:22;;;;;;;18.20;9.55;;;-2.00;99.90;;;;;;4993391;28;20053;-83
2022/12/15 09:11:48;;;;;;;13.63;7.47;;;-2.00;99.90;;;;;;4995076;28;20132;-83
2022/12/15 09:14:16;;;;;;;17.02;9.30;;;-2.00;99.90;;;;;;4993307;28;20049;-84
2022/12/15 09:16:41;;;;;;;16.42;9.23;;;-1.90;99.90;;;;;;4994599;28;20053;-84
2022/12/15 09:19:08;;;;;;;19.52;10.05;;;-1.90;99.90;;;;;;4995372;28;20177;-84
2022/12/15 09:21:34;;;;;;;25.13;11.13;;;-1.90;99.90;;;;;;4994644;28;20478;-85
2022/12/15 09:24:02;;;;;;;17.00;9.57;;;-1.90;99.90;;;;;;4993442;28;20485;-84
2022/12/15 09:26:30;;;;;;;18.30;10.23;;;-1.80;99.90;;;;;;4993733;28;20413;-84
2022/12/15 09:28:56;;;;;;;17.25;9.50;;;-1.80;99.90;;;;;;4992280;28;20125;-84
2022/12/15 09:31:27;;;;;;;15.95;8.65;;;-1.70;99.90;;;;;;4994534;28;20088;-84
2022/12/15 09:33:54;;;;;;;14.93;8.88;;;-1.70;99.90;;;;;;4995064;28;20046;-85
2022/12/15 09:36:19;;;;;;;18.98;10.05;;;-1.70;99.90;;;;;;4994860;28;20049;-84
2022/12/15 09:38:45;;;;;;;19.58;10.43;;;-1.60;99.90;;;;;;4995513;28;20042;-84
2022/12/15 09:41:14;;;;;;;17.88;10.50;;;-1.60;99.90;;;;;;4995220;28;20085;-84
2022/12/15 09:43:49;;;;;;;20.50;10.65;;;-1.50;99.90;;;;;;4990173;28;20125;-85
2022/12/15 09:46:23;;;;;;;17.83;10.18;;;-1.50;99.90;;;;;;4993921;28;20118;-84
2022/12/15 09:48:50;;;;;;;21.58;10.63;;;-1.40;99.90;;;;;;4976345;28;20050;-84
2022/12/15 09:51:17;;;;;;;18.08;9.48;;;-1.40;99.90;;;;;;4987405;28;20057;-84
2022/12/15 09:53:44;;;;;;;20.75;9.95;;;-1.40;99.90;;;;;;5012896;28;20578;-82
2022/12/15 09:56:19;;;;;;;16.38;9.32;;;-1.30;99.90;;;;;;5012777;28;20458;-83
2022/12/15 09:59:18;;;;;;;15.43;8.45;;;-1.20;99.90;;;;;;5008443;28;20126;-84
2022/12/15 10:02:01;;;;;;;18.27;10.25;;;-1.20;99.90;;;;;;4976343;28;20489;-84
2022/12/15 10:05:10;;;;;;;19.75;9.75;;;-1.20;99.90;;;;;;4975498;28;20112;-83
2022/12/15 10:07:40;;;;;;;18.85;11.05;;;-1.10;99.90;;;;;;4988436;28;20072;-84
2022/12/15 10:10:14;;;;;;;19.42;11.05;;;-1.10;99.90;;;;;;4984979;28;20054;-85
2022/12/15 10:12:42;;;;;;;17.67;10.55;;;-1.00;99.90;;;;;;5012922;28;20141;-84
2022/12/15 10:15:21;;;;;;;21.77;9.75;;;-0.90;99.90;;;;;;4995394;28;20129;-85
2022/12/15 10:18:11;;;;;;;18.27;10.45;;;-0.90;99.90;;;;;;4994991;28;20053;-85
2022/12/15 10:20:36;;;;;;;18.55;10.25;;;-0.80;99.90;;;;;;4980571;28;20493;-87
2022/12/15 10:23:15;;;;;;;20.17;10.43;;;-0.80;99.90;;;;;;4995172;28;20095;-86
2022/12/15 10:26:12;;;;;;;23.92;11.10;;;-0.70;99.90;;;;;;5013376;28;20038;-87
2022/12/15 10:28:52;;;;;;;22.23;10.75;;;-0.60;99.90;;;;;;4995751;28;20049;-87
2022/12/15 10:31:30;;;;;;;18.92;9.38;;;-0.60;99.90;;;;;;5016048;28;20034;-88
2022/12/15 10:34:08;;;;;;;17.23;8.73;;;-0.50;99.90;;;;;;4999375;28;20045;-87
2022/12/15 10:36:34;;;;;;;16.73;8.25;;;-0.40;99.90;;;;;;5017120;28;20054;-88
2022/12/15 10:38:59;;;;;;;18.10;8.25;;;-0.40;99.90;;;;;;5016036;28;20096;-88
2022/12/15 10:41:30;;;;;;;17.92;8.90;;;-0.30;99.90;;;;;;5016473;28;20041;-88
2022/12/15 10:43:56;;;;;;;15.57;8.65;;;-0.30;99.90;;;;;;4998831;28;20057;-88
2022/12/15 10:46:24;;;;;;;15.75;8.60;;;-0.30;99.90;;;;;;4998801;28;20046;-88
2022/12/15 10:48:51;;;;;;;14.45;7.78;;;-0.20;99.90;;;;;;5017077;28;20044;-88
2022/12/15 10:51:30;;;;;;;19.52;8.57;;;-0.20;99.90;;;;;;5000103;28;20073;-88
2022/12/15 10:54:11;;;;;;;20.05;8.82;;;-0.20;99.90;;;;;;5016751;28;20124;-89
2022/12/15 10:57:18;;;;;;;18.05;8.85;;;-0.10;99.90;;;;;;4999968;28;20131;-89
2022/12/15 10:59:44;;;;;;;18.02;9.07;;;0.00;99.90;;;;;;4976953;28;20065;-89
2022/12/15 11:02:35;;;;;;;15.48;8.38;;;0.00;99.90;;;;;;4999732;28;20042;-88
2022/12/15 11:05:15;;;;;;;18.33;8.48;;;0.10;99.90;;;;;;5016871;28;20046;-87
2022/12/15 11:07:47;;;;;;;17.33;8.45;;;0.10;99.90;;;;;;4999969;28;20485;-88
2022/12/15 11:13:32;;;;;;;14.45;7.47;;;0.20;99.90;;;;;;5014126;28;20056;-86
2022/12/15 11:16:12;;;;;;;15.50;8.38;;;0.30;99.90;;;;;;5006087;28;20061;-89
2022/12/15 11:18:40;;;;;;;14.88;7.22;;;0.30;99.90;;;;;;4999146;28;20057;-90
2022/12/15 11:21:26;;;;;;;17.05;8.80;;;0.40;99.90;;;;;;4998366;28;20050;-86
2022/12/15 11:24:11;;;;;;;15.32;8.45;;;0.50;99.90;;;;;;4997529;28;20125;-92
2022/12/15 11:27:10;;;;;;;14.25;7.32;;;0.50;99.90;;;;;;4999575;28;20508;-92
2022/12/15 11:30:09;;;;;;;17.25;7.90;;;0.60;99.90;;;;;;5007808;28;20053;-91
2022/12/15 11:32:37;;;;;;;15.05;8.27;;;0.70;99.90;;;;;;4986870;28;20493;-93
2022/12/15 11:35:10;;;;;;;16.88;7.82;;;0.70;99.90;;;;;;4998797;28;20042;-92
2022/12/15 11:37:41;;;;;;;14.30;8.30;;;0.80;99.90;;;;;;5016039;28;20041;-92
2022/12/15 11:40:36;;;;;;;15.02;8.32;;;0.90;99.90;;;;;;4998301;28;20070;-92
2022/12/15 11:43:20;;;;;;;16.27;8.25;;;1.00;99.90;;;;;;5003626;28;20046;-92
2022/12/15 11:46:08;;;;;;;16.00;7.55;;;1.00;99.90;;;;;;4983216;28;20049;-92
2022/12/15 11:48:52;;;;;;;14.88;7.43;;;1.10;99.90;;;;;;4981722;28;20070;-91
2022/12/15 11:51:52;;;;;;;14.40;7.38;;;1.10;99.90;;;;;;5007423;28;20046;-91
2022/12/15 11:54:21;;;;;;;16.83;7.65;;;1.20;99.90;;;;;;4974191;28;20140;-91
2022/12/15 11:57:08;;;;;;;17.65;7.90;;;1.20;99.90;;;;;;5016137;28;20112;-91
2022/12/15 11:59:58;;;;;;;16.10;8.85;;;1.30;99.90;;;;;;4996703;28;20124;-91
2022/12/15 12:02:39;;;;;;;17.70;8.00;;;1.30;99.90;;;;;;5014208;28;20081;-90
2022/12/15 12:05:20;;;;;;;18.67;8.40;;;1.30;99.90;;;;;;4997197;28;20370;-90
2022/12/15 12:08:06;;;;;;;15.13;8.02;;;1.30;99.90;;;;;;5013281;28;20038;-91
2022/12/15 12:10:59;;;;;;;14.45;7.60;;;1.40;99.90;;;;;;5013759;28;20446;-91
2022/12/15 12:13:34;;;;;;;17.45;7.50;;;1.40;99.90;;;;;;4990918;28;20111;-90
2022/12/15 12:16:27;;;;;;;16.23;7.85;;;1.50;99.90;;;;;;4996713;28;20485;-91
2022/12/15 12:19:04;;;;;;;18.52;7.68;;;1.50;99.90;;;;;;4995923;28;20516;-92
2022/12/15 12:21:41;;;;;;;18.27;7.85;;;1.50;99.90;;;;;;4996265;28;20049;-91
2022/12/15 12:24:18;;;;;;;15.75;7.85;;;1.60;99.90;;;;;;4996637;28;20085;-90
2022/12/15 12:26:45;;;;;;;14.95;7.82;;;1.60;99.90;;;;;;4997171;28;20050;-91
2022/12/15 12:29:24;;;;;;;15.43;7.43;;;1.60;99.90;;;;;;5013689;28;20044;-89
2022/12/15 12:31:52;;;;;;;16.02;6.78;;;1.70;99.90;;;;;;4997253;28;20103;-90
2022/12/15 12:34:43;;;;;;;15.35;7.75;;;1.70;99.90;;;;;;4996791;28;20046;-91
2022/12/15 12:37:26;;;;;;;17.83;8.68;;;1.70;99.90;;;;;;5013700;28;20128;-90
2022/12/15 12:39:59;;;;;;;13.52;7.13;;;1.80;99.90;;;;;;4997259;28;20050;-89
2022/12/15 12:42:30;;;;;;;13.88;7.30;;;1.80;99.90;;;;;;4990919;28;20485;-89
2022/12/15 12:44:55;;;;;;;14.27;7.07;;;1.80;99.90;;;;;;5014287;28;20042;-88
2022/12/15 12:47:30;;;;;;;17.85;6.75;;;1.90;99.90;;;;;;4996556;28;20108;-88
2022/12/15 12:50:18;;;;;;;15.13;6.70;;;1.90;99.90;;;;;;4982832;28;20053;-88
2022/12/15 12:52:51;;;;;;;16.67;7.18;;;2.00;99.90;;;;;;4995223;28;20511;-89
2022/12/15 12:55:36;;;;;;;20.55;8.27;;;2.00;99.90;;;;;;5013780;28;20041;-89
2022/12/15 12:58:02;;;;;;;15.65;7.68;;;2.00;99.90;;;;;;4995324;28;20134;-89
2022/12/15 13:00:30;;;;;;;18.48;7.60;;;2.00;99.90;;;;;;5013125;28;20057;-89
2022/12/15 13:03:19;;;;;;;14.25;7.93;;;2.00;99.90;;;;;;4994761;28;20078;-89
2022/12/15 13:05:48;;;;;;;17.70;7.53;;;2.10;99.90;;;;;;5011934;28;20489;-88
2022/12/15 13:08:13;;;;;;;13.85;7.40;;;2.10;99.90;;;;;;5010594;28;20053;-88
2022/12/15 13:10:41;;;;;;;18.77;7.55;;;2.10;99.90;;;;;;4998563;28;20049;-87
2022/12/15 13:13:28;;;;;;;14.80;6.70;;;2.10;99.90;;;;;;5016430;28;20389;-88
2022/12/15 13:16:23;;;;;;;19.20;7.30;;;2.10;99.90;;;;;;5013927;28;20045;-88
2022/12/15 13:18:54;;;;;;;17.33;8.40;;;2.10;99.90;;;;;;4992592;28;20575;-89
2022/12/15 13:21:43;;;;;;;20.88;8.77;;;2.10;99.90;;;;;;5028111;28;20054;-88
2022/12/15 13:24:34;;;;;;;13.85;7.32;;;2.10;99.90;;;;;;4995891;28;20125;-89
2022/12/15 13:27:09;;;;;;;15.95;8.75;;;2.20;99.90;;;;;;4995602;28;20046;-89
2022/12/15 13:29:52;;;;;;;13.48;7.53;;;2.20;99.90;;;;;;4996363;28;20504;-89
2022/12/15 13:32:45;;;;;;;14.93;7.50;;;2.20;99.90;;;;;;4995974;28;20061;-89
2022/12/15 13:35:14;;;;;;;13.60;7.07;;;2.20;99.90;;;;;;4992741;28;20061;-89
2022/12/15 13:37:52;;;;;;;13.52;7.57;;;2.20;99.90;;;;;;4996237;28;20041;-89
2022/12/15 13:40:53;;;;;;;14.98;6.72;;;2.20;99.90;;;;;;4995077;28;20480;-89
2022/12/15 13:43:27;;;;;;;16.17;7.72;;;2.20;99.90;;;;;;4980946;28;20046;-89
2022/12/15 13:46:08;;;;;;;14.02;7.40;;;2.20;99.90;;;;;;4995311;28;20050;-89
2022/12/15 13:48:46;;;;;;;15.52;7.38;;;2.20;99.90;;;;;;4992363;28;20050;-88
2022/12/15 13:51:23;;;;;;;15.55;6.60;;;2.20;99.90;;;;;;4995357;28;20405;-88
2022/12/15 13:54:03;;;;;;;12.70;6.68;;;2.20;99.90;;;;;;5012224;28;20049;-89
2022/12/15 13:56:47;;;;;;;15.48;7.22;;;2.20;99.90;;;;;;4990746;28;20092;-88
2022/12/15 13:59:41;;;;;;;14.25;7.15;;;2.20;99.90;;;;;;5012704;28;20038;-88
2022/12/15 14:02:26;;;;;;;15.25;7.28;;;2.20;99.90;;;;;;5014877;28;20049;-89
2022/12/15 14:05:18;;;;;;;15.90;7.18;;;2.20;99.90;;;;;;4996485;28;20088;-88
2022/12/15 14:07:47;;;;;;;19.83;7.53;;;2.20;99.90;;;;;;5014767;28;20110;-89
2022/12/15 14:10:31;;;;;;;15.13;7.20;;;2.20;99.90;;;;;;4997360;28;20474;-88
2022/12/15 14:13:06;;;;;;;15.60;7.90;;;2.20;99.90;;;;;;4998836;28;20068;-89
2022/12/15 14:15:32;;;;;;;15.20;7.13;;;2.20;99.90;;;;;;5007018;28;20049;-90
2022/12/15 14:18:00;;;;;;;15.73;7.80;;;2.20;99.90;;;;;;4999646;28;20037;-89
2022/12/15 14:20:46;;;;;;;15.98;7.55;;;2.20;99.90;;;;;;5016687;28;20427;-90
2022/12/15 14:23:20;;;;;;;15.00;7.25;;;2.20;99.90;;;;;;5014683;28;20058;-90
2022/12/15 14:25:53;;;;;;;14.73;7.82;;;2.20;99.90;;;;;;4998810;28;20046;-90
2022/12/15 14:28:44;;;;;;;14.73;7.57;;;2.20;99.90;;;;;;5020704;28;20042;-90
2022/12/15 14:31:18;;;;;;;17.42;7.35;;;2.20;99.90;;;;;;5006428;28;20058;-90
2022/12/15 14:34:10;;;;;;;16.50;7.35;;;2.20;99.90;;;;;;5016395;28;20046;-90
2022/12/15 14:36:36;;;;;;;15.95;7.57;;;2.20;99.90;;;;;;4983299;28;20482;-88
2022/12/15 14:39:13;;;;;;;16.08;7.82;;;2.10;99.90;;;;;;5012829;28;20053;-88
2022/12/15 14:41:46;;;;;;;14.80;7.30;;;2.10;99.90;;;;;;4998898;28;20046;-89
2022/12/15 14:44:27;;;;;;;14.35;7.45;;;2.10;99.90;;;;;;4997454;28;20482;-88
2022/12/15 14:46:53;;;;;;;22.25;7.95;;;2.10;99.90;;;;;;4995766;28;20119;-88
2022/12/15 14:49:27;;;;;;;16.95;8.13;;;2.10;99.90;;;;;;4998440;28;20046;-89
2022/12/15 14:52:02;;;;;;;15.18;7.90;;;2.10;99.90;;;;;;4998146;28;20037;-88
2022/12/15 14:54:32;;;;;;;19.25;7.72;;;2.00;99.90;;;;;;4987583;28;20038;-89
2022/12/15 14:57:10;;;;;;;15.43;8.10;;;2.10;99.90;;;;;;4998308;28;20038;-89
2022/12/15 14:59:40;;;;;;;12.30;7.28;;;2.00;99.90;;;;;;4996096;23;20069;-88
2022/12/15 15:02:25;;;;;;;16.75;7.82;;;2.00;99.90;;;;;;4986170;28;20043;-89
2022/12/15 15:05:03;;;;;;;17.60;8.10;;;2.00;99.90;;;;;;4990395;28;20057;-89
2022/12/15 15:07:36;;;;;;;16.27;8.18;;;2.00;99.90;;;;;;4989180;28;20066;-89
2022/12/15 15:10:20;;;;;;;15.98;8.60;;;1.90;99.90;;;;;;4988491;28;20038;-89
2022/12/15 15:12:48;;;;;;;20.60;9.50;;;1.90;99.90;;;;;;4987099;28;20162;-88
2022/12/15 15:15:16;;;;;;;16.80;9.30;;;1.90;99.90;;;;;;4992859;28;20501;-88
2022/12/15 15:17:51;;;;;;;18.33;10.20;;;1.90;99.90;;;;;;4982413;28;20124;-88
2022/12/15 15:20:21;;;;;;;16.08;9.10;;;1.90;99.90;;;;;;4989250;28;20576;-89
2022/12/15 15:23:07;;;;;;;15.88;8.95;;;1.90;99.90;;;;;;4986891;28;20569;-90
2022/12/15 15:25:32;;;;;;;17.15;9.07;;;1.80;99.90;;;;;;4983570;28;20486;-90
2022/12/15 15:28:18;;;;;;;18.42;9.57;;;1.80;99.90;;;;;;4986286;28;20099;-89
2022/12/15 15:30:43;;;;;;;17.40;9.63;;;1.80;99.90;;;;;;4986680;28;20113;-89